Time,TemperatureF,DewpointF,PressureIn,WindDirection,WindDirectionDegrees,WindSpeedMPH,WindSpeedGustMPH,Humidity,HourlyPrecipIn,Conditions,Clouds,dailyrainin,SoftwareType,DateUTC
2013-01-29 00:09:00,13.8,-99.9,29.71,North,-999,0.0,0.0,-999,0.00,,,-99.99,FreeWX 2.04,2013-01-29 07:09:00,
2013-01-29 00:19:00,14.2,0.7,29.71,North,-999,0.0,0.0,54,0.00,,,-99.99,FreeWX 2.04,2013-01-29 07:19:00,
2013-01-29 00:29:00,14.2,0.7,29.71,North,-999,0.0,0.0,54,0.00,,,-99.99,FreeWX 2.04,2013-01-29 07:29:00,
2013-01-29 00:39:00,14.4,0.9,29.71,North,-999,0.0,0.0,54,0.00,,,-99.99,FreeWX 2.04,2013-01-29 07:39:00,
2013-01-29 00:49:00,14.2,1.0,29.71,North,-999,0.0,0.0,55,0.00,,,-99.99,FreeWX 2.04,2013-01-29 07:49:00,
2013-01-29 00:59:00,14.4,1.2,29.71,North,-999,0.0,0.0,55,0.00,,,-99.99,FreeWX 2.04,2013-01-29 07:59:00,
2013-01-29 01:09:00,14.5,1.4,29.71,North,-999,0.0,0.0,55,0.00,,,-99.99,FreeWX 2.04,2013-01-29 08:09:00,
2013-01-29 01:19:00,14.7,1.9,29.71,North,-999,0.0,0.0,56,0.00,,,-99.99,FreeWX 2.04,2013-01-29 08:19:00,
2013-01-29 01:29:00,14.5,1.8,29.71,North,-999,0.0,0.0,56,0.00,,,-99.99,FreeWX 2.04,2013-01-29 08:29:00,
2013-01-29 01:39:00,14.5,2.1,29.71,North,-999,0.0,0.0,57,0.00,,,-99.99,FreeWX 2.04,2013-01-29 08:39:00,
2013-01-29 01:49:00,14.7,2.3,29.71,North,-999,0.0,0.0,57,0.00,,,-99.99,FreeWX 2.04,2013-01-29 08:49:00,
2013-01-29 01:59:00,14.7,2.3,29.71,North,-999,0.0,0.0,57,0.00,,,-99.99,FreeWX 2.04,2013-01-29 08:59:00,
2013-01-29 02:09:00,14.9,2.5,29.71,North,-999,0.0,0.0,57,0.00,,,-99.99,FreeWX 2.04,2013-01-29 09:09:00,
2013-01-29 02:19:00,15.1,2.3,29.71,North,-999,0.0,0.0,56,0.00,,,-99.99,FreeWX 2.04,2013-01-29 09:19:00,
2013-01-29 02:29:00,15.1,2.3,29.71,North,-999,0.0,0.0,56,0.00,,,-99.99,FreeWX 2.04,2013-01-29 09:29:00,
2013-01-29 02:40:00,15.1,1.9,29.71,North,-999,0.0,0.0,55,0.00,,,-99.99,FreeWX 2.04,2013-01-29 09:40:00,
2013-01-29 02:50:00,15.3,1.9,29.71,North,-999,0.0,0.0,55,0.00,,,-99.99,FreeWX 2.04,2013-01-29 09:50:00,
2013-01-29 03:00:00,14.7,1.6,29.71,North,-999,0.0,0.0,55,0.00,,,-99.99,FreeWX 2.04,2013-01-29 10:00:00,
2013-01-29 03:10:00,14.7,1.9,29.71,North,-999,0.0,0.0,56,0.00,,,-99.99,FreeWX 2.04,2013-01-29 10:10:00,
2013-01-29 03:20:00,16.2,1.6,29.71,North,-999,0.0,0.0,52,0.00,,,-99.99,FreeWX 2.04,2013-01-29 10:20:00,
2013-01-29 03:30:00,16.3,0.5,29.71,North,-999,0.0,0.0,49,0.00,,,-99.99,FreeWX 2.04,2013-01-29 10:30:00,
2013-01-29 03:40:00,16.3,0.1,29.71,North,-999,0.0,0.0,48,0.00,,,-99.99,FreeWX 2.04,2013-01-29 10:40:00,
2013-01-29 03:50:00,16.0,0.7,29.71,North,-999,0.0,0.0,50,0.00,,,-99.99,FreeWX 2.04,2013-01-29 10:50:00,
2013-01-29 04:00:00,15.8,1.4,29.71,North,-999,0.0,0.0,52,0.00,,,-99.99,FreeWX 2.04,2013-01-29 11:00:00,
2013-01-29 04:10:00,15.6,1.9,29.71,North,-999,0.0,0.0,54,0.00,,,-99.99,FreeWX 2.04,2013-01-29 11:10:00,
2013-01-29 04:20:00,15.6,1.9,29.71,North,-999,0.0,0.0,54,0.00,,,-99.99,FreeWX 2.04,2013-01-29 11:20:00,
2013-01-29 04:30:00,15.1,1.9,29.71,North,-999,0.0,0.0,55,0.00,,,-99.99,FreeWX 2.04,2013-01-29 11:30:00,
2013-01-29 04:40:00,15.1,1.9,29.71,North,-999,0.0,0.0,55,0.00,,,-99.99,FreeWX 2.04,2013-01-29 11:40:00,
2013-01-29 04:50:00,15.1,2.3,29.71,North,-999,0.0,0.0,56,0.00,,,-99.99,FreeWX 2.04,2013-01-29 11:50:00,
2013-01-29 05:00:00,15.1,2.3,29.71,North,-999,0.0,0.0,56,0.00,,,-99.99,FreeWX 2.04,2013-01-29 12:00:00,
2013-01-29 05:10:00,15.1,1.9,29.71,North,-999,0.0,0.0,55,0.00,,,-99.99,FreeWX 2.04,2013-01-29 12:10:00,
2013-01-29 05:20:00,14.7,1.6,29.71,North,-999,0.0,0.0,55,0.00,,,-99.99,FreeWX 2.04,2013-01-29 12:20:00,
2013-01-29 05:30:00,14.7,1.0,29.71,North,-999,0.0,0.0,54,0.00,,,-99.99,FreeWX 2.04,2013-01-29 12:30:00,
2013-01-29 05:40:00,14.7,1.6,29.71,North,-999,0.0,0.0,55,0.00,,,-99.99,FreeWX 2.04,2013-01-29 12:40:00,
2013-01-29 05:50:00,14.9,1.8,29.71,North,-999,0.0,0.0,55,0.00,,,-99.99,FreeWX 2.04,2013-01-29 12:50:00,
2013-01-29 06:00:00,15.1,1.4,29.71,North,-999,0.0,0.0,54,0.00,,,-99.99,FreeWX 2.04,2013-01-29 13:00:00,
2013-01-29 06:10:00,15.1,1.4,29.71,North,-999,0.0,0.0,54,0.00,,,-99.99,FreeWX 2.04,2013-01-29 13:10:00,
2013-01-29 06:20:00,15.3,1.6,29.71,North,-999,0.0,0.0,54,0.00,,,-99.99,FreeWX 2.04,2013-01-29 13:20:00,
2013-01-29 06:30:00,15.3,1.9,29.71,North,-999,0.0,0.0,55,0.00,,,-99.99,FreeWX 2.04,2013-01-29 13:30:00,
2013-01-29 06:40:00,15.1,1.9,29.71,North,-999,0.0,0.0,55,0.00,,,-99.99,FreeWX 2.04,2013-01-29 13:40:00,
2013-01-29 06:50:00,14.9,2.1,29.71,North,-999,0.0,0.0,56,0.00,,,-99.99,FreeWX 2.04,2013-01-29 13:50:00,
2013-01-29 07:00:00,14.9,2.5,29.71,North,-999,0.0,0.0,57,0.00,,,-99.99,FreeWX 2.04,2013-01-29 14:00:00,
2013-01-29 07:10:00,14.9,2.5,29.71,North,-999,0.0,0.0,57,0.00,,,-99.99,FreeWX 2.04,2013-01-29 14:10:00,
2013-01-29 07:20:00,14.7,2.3,29.71,North,-999,0.0,0.0,57,0.00,,,-99.99,FreeWX 2.04,2013-01-29 14:20:00,
2013-01-29 07:30:00,14.7,1.9,29.71,North,-999,0.0,0.0,56,0.00,,,-99.99,FreeWX 2.04,2013-01-29 14:30:00,
2013-01-29 07:40:00,15.1,2.3,29.71,North,-999,0.0,0.0,56,0.00,,,-99.99,FreeWX 2.04,2013-01-29 14:40:00,
2013-01-29 07:50:00,14.9,2.1,29.71,North,-999,0.0,0.0,56,0.00,,,-99.99,FreeWX 2.04,2013-01-29 14:50:00,
2013-01-29 08:00:00,15.3,2.5,29.71,North,-999,0.0,0.0,56,0.00,,,-99.99,FreeWX 2.04,2013-01-29 15:00:00,
2013-01-29 08:10:00,15.6,2.8,29.71,North,-999,0.0,0.0,56,0.00,,,-99.99,FreeWX 2.04,2013-01-29 15:10:00,
2013-01-29 08:20:00,16.0,2.7,29.71,North,-999,0.0,0.0,55,0.00,,,-99.99,FreeWX 2.04,2013-01-29 15:20:00,
2013-01-29 08:30:00,16.3,3.0,29.71,North,-999,0.0,0.0,55,0.00,,,-99.99,FreeWX 2.04,2013-01-29 15:30:00,
2013-01-29 08:40:00,16.7,3.0,29.71,North,-999,0.0,0.0,54,0.00,,,-99.99,FreeWX 2.04,2013-01-29 15:40:00,
2013-01-29 08:50:00,17.1,3.4,29.71,North,-999,0.0,0.0,54,0.00,,,-99.99,FreeWX 2.04,2013-01-29 15:50:00,
2013-01-29 09:00:00,15.1,1.4,29.71,North,-999,0.0,0.0,54,0.00,,,-99.99,FreeWX 2.04,2013-01-29 16:00:00,
2013-01-29 09:10:00,14.9,2.1,29.71,North,-999,0.0,0.0,56,0.00,,,-99.99,FreeWX 2.04,2013-01-29 16:10:00,
2013-01-29 09:20:00,15.3,2.5,29.71,North,-999,0.0,0.0,56,0.00,,,-99.99,FreeWX 2.04,2013-01-29 16:20:00,
2013-01-29 09:31:00,16.0,3.0,29.71,North,-999,0.0,0.0,56,0.00,,,-99.99,FreeWX 2.04,2013-01-29 16:31:00,
2013-01-29 09:41:00,17.2,3.9,29.71,North,-999,0.0,0.0,55,0.00,,,-99.99,FreeWX 2.04,2013-01-29 16:41:00,
2013-01-29 09:51:00,18.1,3.9,29.71,North,-999,0.0,0.0,53,0.00,,,-99.99,FreeWX 2.04,2013-01-29 16:51:00,
2013-01-29 10:01:00,18.7,2.7,29.71,North,-999,0.0,0.0,49,0.00,,,-99.99,FreeWX 2.04,2013-01-29 17:01:00,
2013-01-29 10:11:00,18.0,1.6,29.71,North,-999,0.0,0.0,48,0.00,,,-99.99,FreeWX 2.04,2013-01-29 17:11:00,
2013-01-29 10:21:00,18.5,2.5,29.71,North,-999,0.0,0.0,49,0.00,,,-99.99,FreeWX 2.04,2013-01-29 17:21:00,
2013-01-29 10:31:00,18.1,1.8,29.71,North,-999,0.0,0.0,48,0.00,,,-99.99,FreeWX 2.04,2013-01-29 17:31:00,
2013-01-29 10:41:00,17.1,1.6,29.71,North,-999,0.0,0.0,50,0.00,,,-99.99,FreeWX 2.04,2013-01-29 17:41:00,
2013-01-29 10:51:00,16.5,2.5,29.71,North,-999,0.0,0.0,53,0.00,,,-99.99,FreeWX 2.04,2013-01-29 17:51:00,
2013-01-29 11:01:00,16.7,3.0,29.71,North,-999,0.0,0.0,54,0.00,,,-99.99,FreeWX 2.04,2013-01-29 18:01:00,
2013-01-29 11:11:00,16.7,3.4,29.71,North,-999,0.0,0.0,55,0.00,,,-99.99,FreeWX 2.04,2013-01-29 18:11:00,
2013-01-29 11:21:00,17.2,3.6,29.71,North,-999,0.0,0.0,54,0.00,,,-99.99,FreeWX 2.04,2013-01-29 18:21:00,
2013-01-29 11:31:00,18.1,3.9,29.71,North,-999,0.0,0.0,53,0.00,,,-99.99,FreeWX 2.04,2013-01-29 18:31:00,
2013-01-29 11:41:00,18.9,3.7,29.71,North,-999,0.0,0.0,51,0.00,,,-99.99,FreeWX 2.04,2013-01-29 18:41:00,
2013-01-29 11:51:00,18.9,2.5,29.74,North,-999,0.0,0.0,48,0.00,,,-99.99,FreeWX 2.04,2013-01-29 18:51:00,
2013-01-29 12:01:00,20.3,3.4,29.74,North,-999,0.0,0.0,47,0.00,,,-99.99,FreeWX 2.04,2013-01-29 19:01:00,
2013-01-29 12:11:00,19.9,2.5,29.71,North,-999,0.0,0.0,46,0.00,,,-99.99,FreeWX 2.04,2013-01-29 19:11:00,
2013-01-29 12:21:00,19.9,2.5,29.74,North,-999,0.0,0.0,46,0.00,,,-99.99,FreeWX 2.04,2013-01-29 19:21:00,
2013-01-29 12:31:00,19.2,2.3,29.74,North,-999,0.0,0.0,47,0.00,,,-99.99,FreeWX 2.04,2013-01-29 19:31:00,
2013-01-29 12:41:00,20.3,4.3,29.74,North,-999,0.0,0.0,49,0.00,,,-99.99,FreeWX 2.04,2013-01-29 19:41:00,
2013-01-29 12:51:00,20.8,4.3,29.74,North,-999,0.0,0.0,48,0.00,,,-99.99,FreeWX 2.04,2013-01-29 19:51:00,
2013-01-29 13:01:00,21.9,3.9,29.74,North,-999,0.0,0.0,45,0.00,,,-99.99,FreeWX 2.04,2013-01-29 20:01:00,
2013-01-29 13:11:00,21.7,2.7,29.74,North,-999,0.0,0.0,43,0.00,,,-99.99,FreeWX 2.04,2013-01-29 20:11:00,
2013-01-29 13:21:00,21.9,2.8,29.74,North,-999,0.0,0.0,43,0.00,,,-99.99,FreeWX 2.04,2013-01-29 20:21:00,
2013-01-29 13:31:00,20.1,1.8,29.74,North,-999,0.0,0.0,44,0.00,,,-99.99,FreeWX 2.04,2013-01-29 20:31:00,
2013-01-29 13:41:00,20.1,2.7,29.74,North,-999,0.0,0.0,46,0.00,,,-99.99,FreeWX 2.04,2013-01-29 20:41:00,
2013-01-29 13:51:00,20.1,2.7,29.74,North,-999,0.0,0.0,46,0.00,,,-99.99,FreeWX 2.04,2013-01-29 20:51:00,
2013-01-29 14:01:00,19.9,2.5,29.74,North,-999,0.0,0.0,46,0.00,,,-99.99,FreeWX 2.04,2013-01-29 21:01:00,
2013-01-29 14:11:00,20.3,2.5,29.74,North,-999,0.0,0.0,45,0.00,,,-99.99,FreeWX 2.04,2013-01-29 21:11:00,
2013-01-29 14:21:00,20.5,2.1,29.76,North,-999,0.0,0.0,44,0.00,,,-99.99,FreeWX 2.04,2013-01-29 21:21:00,
2013-01-29 14:31:00,19.4,1.6,29.76,North,-999,0.0,0.0,45,0.00,,,-99.99,FreeWX 2.04,2013-01-29 21:31:00,
2013-01-29 14:41:00,19.0,2.1,29.76,North,-999,0.0,0.0,47,0.00,,,-99.99,FreeWX 2.04,2013-01-29 21:41:00,
2013-01-29 14:51:00,19.4,3.0,29.76,North,-999,0.0,0.0,48,0.00,,,-99.99,FreeWX 2.04,2013-01-29 21:51:00,
2013-01-29 15:01:00,19.8,2.8,29.76,North,-999,0.0,0.0,47,0.00,,,-99.99,FreeWX 2.04,2013-01-29 22:01:00,
2013-01-29 15:11:00,19.8,2.3,29.76,North,-999,0.0,0.0,46,0.00,,,-99.99,FreeWX 2.04,2013-01-29 22:11:00,
2013-01-29 15:21:00,21.0,3.0,29.76,North,-999,0.0,0.0,45,0.00,,,-99.99,FreeWX 2.04,2013-01-29 22:21:00,
2013-01-29 15:32:00,21.2,2.3,29.76,North,-999,0.0,0.0,43,0.00,,,-99.99,FreeWX 2.04,2013-01-29 22:32:00,
2013-01-29 15:42:00,19.2,0.9,29.79,North,-999,0.0,0.0,44,0.00,,,-99.99,FreeWX 2.04,2013-01-29 22:42:00,
2013-01-29 15:52:00,17.2,0.1,29.79,North,-999,0.0,0.0,46,0.00,,,-99.99,FreeWX 2.04,2013-01-29 22:52:00,
2013-01-29 16:02:00,18.9,1.0,29.79,North,-999,0.0,0.0,45,0.00,,,-99.99,FreeWX 2.04,2013-01-29 23:02:00,
2013-01-29 16:12:00,16.5,-0.6,29.79,North,-999,0.0,0.0,46,0.00,,,-99.99,FreeWX 2.04,2013-01-29 23:12:00,
2013-01-29 16:22:00,15.6,0.3,29.79,North,-999,0.0,0.0,50,0.00,,,-99.99,FreeWX 2.04,2013-01-29 23:22:00,
2013-01-29 16:32:00,15.4,0.5,29.79,North,-999,0.0,0.0,51,0.00,,,-99.99,FreeWX 2.04,2013-01-29 23:32:00,
2013-01-29 16:42:00,14.7,0.0,29.82,North,-999,0.0,0.0,51,0.00,,,-99.99,FreeWX 2.04,2013-01-29 23:42:00,
2013-01-29 16:52:00,14.9,1.2,29.82,North,-999,0.0,0.0,54,0.00,,,-99.99,FreeWX 2.04,2013-01-29 23:52:00,
2013-01-29 17:02:00,14.5,1.4,29.82,North,-999,0.0,0.0,55,0.00,,,-99.99,FreeWX 2.04,2013-01-30 00:02:00,
2013-01-29 17:12:00,14.2,1.4,29.82,North,-999,0.0,0.0,56,0.00,,,-99.99,FreeWX 2.04,2013-01-30 00:12:00,
2013-01-29 17:22:00,14.0,1.2,29.82,North,-999,0.0,0.0,56,0.00,,,-99.99,FreeWX 2.04,2013-01-30 00:22:00,
2013-01-29 17:32:00,13.5,-99.9,29.82,North,-999,0.0,0.0,-999,0.00,,,-99.99,FreeWX 2.04,2013-01-30 00:32:00,
2013-01-29 17:42:00,13.6,-99.9,29.82,North,-999,0.0,0.0,-999,0.00,,,-99.99,FreeWX 2.04,2013-01-30 00:42:00,
2013-01-29 17:52:00,14.0,2.3,29.85,North,-999,0.0,0.0,59,0.00,,,-99.99,FreeWX 2.04,2013-01-30 00:52:00,
2013-01-29 18:02:00,14.4,3.0,29.85,North,-999,0.0,0.0,60,0.00,,,-99.99,FreeWX 2.04,2013-01-30 01:02:00,
2013-01-29 18:12:00,14.0,2.7,29.85,North,-999,0.0,0.0,60,0.00,,,-99.99,FreeWX 2.04,2013-01-30 01:12:00,
2013-01-29 18:22:00,13.5,-99.9,29.85,North,-999,0.0,0.0,-999,0.00,,,-99.99,FreeWX 2.04,2013-01-30 01:22:00,
2013-01-29 18:32:00,13.3,-99.9,29.85,North,-999,0.0,0.0,-999,0.00,,,-99.99,FreeWX 2.04,2013-01-30 01:32:00,
2013-01-29 18:42:00,12.9,-99.9,29.85,North,-999,0.0,0.0,-999,0.00,,,-99.99,FreeWX 2.04,2013-01-30 01:42:00,
2013-01-29 18:52:00,13.5,-99.9,29.85,North,-999,0.0,0.0,-999,0.00,,,-99.99,FreeWX 2.04,2013-01-30 01:52:00,
2013-01-29 19:02:00,13.5,-99.9,29.85,North,-999,0.0,0.0,-999,0.00,,,-99.99,FreeWX 2.04,2013-01-30 02:02:00,
2013-01-29 19:12:00,13.1,-99.9,29.85,North,-999,0.0,0.0,-999,0.00,,,-99.99,FreeWX 2.04,2013-01-30 02:12:00,
2013-01-29 19:22:00,12.9,-99.9,29.85,North,-999,0.0,0.0,-999,0.00,,,-99.99,FreeWX 2.04,2013-01-30 02:22:00,
2013-01-29 19:32:00,13.1,-99.9,29.85,North,-999,0.0,0.0,-999,0.00,,,-99.99,FreeWX 2.04,2013-01-30 02:32:00,
2013-01-29 19:42:00,12.6,-99.9,29.85,North,-999,0.0,0.0,-999,0.00,,,-99.99,FreeWX 2.04,2013-01-30 02:42:00,
2013-01-29 19:52:00,12.7,-99.9,29.88,North,-999,0.0,0.0,-999,0.00,,,-99.99,FreeWX 2.04,2013-01-30 02:52:00,
2013-01-29 20:02:00,12.4,-99.9,29.88,North,-999,0.0,0.0,-999,0.00,,,-99.99,FreeWX 2.04,2013-01-30 03:02:00,
2013-01-29 20:12:00,11.8,-99.9,29.88,North,-999,0.0,0.0,-999,0.00,,,-99.99,FreeWX 2.04,2013-01-30 03:12:00,
2013-01-29 20:22:00,11.8,-99.9,29.88,North,-999,0.0,0.0,-999,0.00,,,-99.99,FreeWX 2.04,2013-01-30 03:22:00,
2013-01-29 20:32:00,12.4,-99.9,29.88,North,-999,0.0,0.0,-999,0.00,,,-99.99,FreeWX 2.04,2013-01-30 03:32:00,
2013-01-29 20:42:00,11.8,-99.9,29.88,North,-999,0.0,0.0,-999,0.00,,,-99.99,FreeWX 2.04,2013-01-30 03:42:00,
2013-01-29 20:52:00,11.7,-99.9,29.88,North,-999,0.0,0.0,-999,0.00,,,-99.99,FreeWX 2.04,2013-01-30 03:52:00,
2013-01-29 21:02:00,12.2,-99.9,29.88,North,-999,0.0,0.0,-999,0.00,,,-99.99,FreeWX 2.04,2013-01-30 04:02:00,
2013-01-29 21:12:00,12.0,-99.9,29.88,North,-999,0.0,0.0,-999,0.00,,,-99.99,FreeWX 2.04,2013-01-30 04:12:00,
2013-01-29 21:22:00,12.0,-99.9,29.85,North,-999,0.0,0.0,-999,0.00,,,-99.99,FreeWX 2.04,2013-01-30 04:22:00,
2013-01-29 21:32:00,12.6,-99.9,29.85,North,-999,0.0,0.0,-999,0.00,,,-99.99,FreeWX 2.04,2013-01-30 04:32:00,
2013-01-29 21:42:00,12.7,-99.9,29.88,North,-999,0.0,0.0,-999,0.00,,,-99.99,FreeWX 2.04,2013-01-30 04:42:00,
2013-01-29 21:52:00,12.6,-99.9,29.85,North,-999,0.0,0.0,-999,0.00,,,-99.99,FreeWX 2.04,2013-01-30 04:52:00,
2013-01-29 22:03:00,12.6,-99.9,29.85,North,-999,0.0,0.0,-999,0.00,,,-99.99,FreeWX 2.04,2013-01-30 05:03:00,
2013-01-29 22:13:00,13.1,-99.9,29.88,North,-999,0.0,0.0,-999,0.00,,,-99.99,FreeWX 2.04,2013-01-30 05:13:00,
2013-01-29 22:23:00,13.5,-99.9,29.88,North,-999,0.0,0.0,-999,0.00,,,-99.99,FreeWX 2.04,2013-01-30 05:23:00,
2013-01-29 22:33:00,13.6,-99.9,29.88,North,-999,0.0,0.0,-999,0.00,,,-99.99,FreeWX 2.04,2013-01-30 05:33:00,
2013-01-29 22:43:00,13.6,-99.9,29.88,North,-999,0.0,0.0,-999,0.00,,,-99.99,FreeWX 2.04,2013-01-30 05:43:00,
2013-01-29 22:53:00,13.6,-99.9,29.88,North,-999,0.0,0.0,-999,0.00,,,-99.99,FreeWX 2.04,2013-01-30 05:53:00,
2013-01-29 23:03:00,13.6,-99.9,29.88,North,-999,0.0,0.0,-999,0.00,,,-99.99,FreeWX 2.04,2013-01-30 06:03:00,
2013-01-29 23:13:00,13.8,-99.9,29.88,North,-999,0.0,0.0,-999,0.00,,,-99.99,FreeWX 2.04,2013-01-30 06:13:00,
2013-01-29 23:23:00,14.2,1.0,29.88,North,-999,0.0,0.0,55,0.00,,,-99.99,FreeWX 2.04,2013-01-30 06:23:00,
2013-01-29 23:33:00,14.4,1.2,29.88,North,-999,0.0,0.0,55,0.00,,,-99.99,FreeWX 2.04,2013-01-30 06:33:00,
2013-01-29 23:43:00,14.4,1.2,29.88,North,-999,0.0,0.0,55,0.00,,,-99.99,FreeWX 2.04,2013-01-30 06:43:00,
2013-01-29 23:53:00,14.5,1.4,29.88,North,-999,0.0,0.0,55,0.00,,,-99.99,FreeWX 2.04,2013-01-30 06:53:00,